INFORMACIÓN METAR y TAF
METAR FOR LEGR
ADDS - METARS form results

(1048 UTC 09 March 2021)
Data provider http://aviationweather.gov/metar/data/
 
METAR text: LEGR 091030Z VRB01KT 8000 FEW025 11/07 Q1017
Conditions at: LEGR (GRANADA AIRPORT , ES) observed 1030 UTC 09 March 2021
Temperature: 11.0°C (52°F)
Dewpoint: 7.0°C (45°F) [RH = 76%]
Pressure (altimeter): 30.03 inches Hg (1017.0 mb)
Winds: variable direction winds at 1 MPH (1 knots; 0.5 m/s)
Visibility: 5 miles ( 8 km)
Ceiling: at least 12,000 feet AGL
Clouds: few clouds at 2500 feet AGL
Weather: no significant weather observed at this time

METAR text: LEGR 091000Z 00000KT 8000 FEW025 10/07 Q1017
Conditions at: LEGR (GRANADA AIRPORT , ES) observed 1000 UTC 09 March 2021
Temperature: 10.0°C (50°F)
Dewpoint: 7.0°C (45°F) [RH = 82%]
Pressure (altimeter): 30.03 inches Hg (1017.0 mb)
Winds: calm
Visibility: 5 miles ( 8 km)
Ceiling: at least 12,000 feet AGL
Clouds: few clouds at 2500 feet AGL
Weather: no significant weather observed at this time

Forecast for: LEGR (GRANADA AIRPORT , ES)
Text: TAF LEGR 090800Z 0909/1009 VRB02KT 9999 SCT035 TX15/0915Z TN02/1007Z
Forecast period: 0900 UTC 09 March 2021 to 0900 UTC 10 March 2021
Forecast type: FROM: standard forecast or significant change
Winds: variable direction winds at 2 MPH (2 knots; 1.0 m/s)
Visibility: 6 or more miles (10+ km)
Ceiling: at least 12,000 feet AGL
Clouds: scattered clouds at 3500 feet AGL
Weather: no significant weather forecast for this period
Text: PROB40
Forecast period: 0900 to 1000 UTC 09 March 2021
Forecast type: TEMPORARY: The following changes expected for less than half the time period
Visibility: missing
Ceiling: 1400 feet AGL
Clouds: broken clouds at 1400 feet AGL
Weather: no significant weather forecast for this period
Text: TEMPO 0909/0910 BKN014
Forecast period: 1300 to 1800 UTC 09 March 2021
Forecast type: TEMPORARY: The following changes expected for less than half the time period
Winds: from the S (190 degrees) at 12 MPH (10 knots; 5.1 m/s)
Visibility: 2.49 miles (4.01 km)
Ceiling: at least 12,000 feet AGL
Clouds: scattered clouds at 3000 feet AGL
Weather: SHRA  (rain showers)
Text: PROB30
Forecast period: 0400 to 0800 UTC 10 March 2021
Forecast type: TEMPORARY: The following changes expected for less than half the time period
Visibility: 1.86 miles (2.99 km)
Ceiling: unknown
Clouds: missing
Weather: BR  (mist)

 MAPA DE AEROPUERTO

 INFORMACIÓN DE PISTA
Pista 09 Longitud 9514 ft Ancho 148 ft
Elevación 1842 ft Umbral desplazado 0 ft Rumbo de pista 90
Pista 27 Longitud 9514 ft Ancho 148 ft
Elevación 1860 ft Umbral desplazado 0 ft Rumbo de pista 270

 FRECUANCIAS DEL AEROPUERTO
Tipo GND Nombre GND Frecuencia 121.7 MHZ
Tipo TWR Nombre TWR Frecuencia 118.85 MHZ

 RADIO AYUDAS DEL AEROPUERTO
Tipo VOR-DME Nombre Granada Frecuencia 113400 KHZ



Powered by Virtual Airlines Manager [v2.6.2]